createdAt,value
2023-05-15T00:00:26.189Z,68.30
2023-05-15T00:02:55.299Z,68.30
2023-05-15T00:05:24.360Z,68.30
2023-05-15T00:07:55.680Z,68.30
2023-05-15T00:10:24.673Z,68.30
2023-05-15T00:12:53.762Z,68.20
2023-05-15T00:15:24.266Z,68.30
2023-05-15T00:17:53.518Z,68.30
2023-05-15T00:20:22.400Z,68.20
2023-05-15T00:22:51.211Z,68.40
2023-05-15T00:25:20.416Z,68.50
2023-05-15T00:27:49.376Z,68.50
2023-05-15T00:30:18.313Z,68.50
2023-05-15T00:32:48.832Z,68.40
2023-05-15T00:35:20.295Z,68.50
2023-05-15T00:37:49.558Z,68.70
2023-05-15T00:40:22.562Z,68.80
2023-05-15T00:42:51.907Z,68.80
2023-05-15T00:45:23.249Z,68.70
2023-05-15T00:47:55.482Z,68.80
2023-05-15T00:50:25.446Z,68.80
2023-05-15T00:52:55.166Z,68.80
2023-05-15T00:55:24.512Z,68.90
2023-05-15T00:57:54.558Z,68.80
2023-05-15T01:00:24.090Z,68.80
2023-05-15T01:02:55.402Z,68.90
2023-05-15T01:05:24.797Z,68.90
2023-05-15T01:08:02.193Z,68.90
2023-05-15T01:10:31.462Z,70.00
2023-05-15T01:13:02.628Z,69.20
2023-05-15T01:15:31.701Z,69.20
2023-05-15T01:18:03.444Z,69.20
2023-05-15T01:20:40.701Z,69.40
2023-05-15T01:23:16.675Z,69.30
2023-05-15T01:26:07.169Z,69.40
2023-05-15T01:28:41.843Z,69.60
2023-05-15T01:31:15.992Z,69.50
2023-05-15T01:33:48.109Z,69.50
2023-05-15T01:36:23.261Z,69.50
2023-05-15T01:38:56.785Z,69.50
2023-05-15T01:41:29.677Z,69.50
2023-05-15T01:44:05.940Z,69.40
2023-05-15T01:46:40.303Z,69.30
2023-05-15T01:49:12.056Z,69.40
2023-05-15T01:51:43.535Z,69.30
2023-05-15T01:54:16.255Z,69.40
2023-05-15T01:56:46.332Z,69.40
2023-05-15T01:59:18.890Z,69.40
2023-05-15T02:01:48.942Z,69.60
2023-05-15T02:04:19.955Z,69.60
2023-05-15T02:06:50.334Z,69.70
2023-05-15T02:09:20.811Z,69.80
2023-05-15T02:11:50.851Z,69.70
2023-05-15T02:14:22.223Z,69.70
2023-05-15T02:16:51.650Z,69.70
2023-05-15T02:19:20.866Z,69.50
2023-05-15T02:21:50.383Z,69.50
2023-05-15T02:24:19.702Z,69.50
2023-05-15T02:26:57.985Z,69.60
2023-05-15T02:29:35.295Z,70.00
2023-05-15T02:32:11.092Z,69.80
2023-05-15T02:34:46.835Z,69.70
2023-05-15T02:37:21.028Z,69.70
2023-05-15T02:39:53.822Z,69.60
2023-05-15T02:42:23.838Z,69.50
2023-05-15T02:44:54.931Z,69.70
2023-05-15T02:47:26.128Z,69.60
2023-05-15T02:49:57.670Z,69.70
2023-05-15T02:52:27.048Z,69.70
2023-05-15T02:54:56.298Z,69.70
2023-05-15T02:57:25.386Z,69.80
2023-05-15T02:59:57.122Z,69.90
2023-05-15T03:02:26.151Z,70.00
2023-05-15T03:04:55.373Z,69.90
2023-05-15T03:07:24.339Z,69.90
2023-05-15T03:13:47.622Z,70.20
2023-05-15T03:16:18.110Z,69.90
2023-05-15T03:18:47.545Z,69.90
2023-05-15T03:21:17.597Z,69.90
2023-05-15T03:23:49.563Z,70.00
2023-05-15T03:26:18.628Z,70.00
2023-05-15T03:28:47.566Z,69.90
2023-05-15T03:31:17.914Z,70.00
2023-05-15T03:33:51.463Z,70.00
2023-05-15T03:36:20.788Z,70.20
2023-05-15T03:38:49.842Z,70.40
2023-05-15T03:41:18.788Z,70.40
2023-05-15T03:43:47.724Z,70.40
2023-05-15T03:46:21.939Z,70.40
2023-05-15T03:48:51.198Z,70.60
2023-05-15T03:51:20.374Z,70.70
2023-05-15T03:53:49.708Z,70.70
2023-05-15T03:56:18.948Z,70.80
2023-05-15T03:58:47.942Z,70.80
2023-05-15T04:01:17.419Z,70.70
2023-05-15T04:03:48.104Z,70.70
2023-05-15T04:06:17.193Z,70.60
2023-05-15T04:08:46.334Z,70.60
2023-05-15T04:11:15.710Z,70.50
2023-05-15T04:13:44.695Z,70.40
2023-05-15T04:16:14.364Z,70.50
2023-05-15T04:18:43.335Z,70.70
2023-05-15T04:21:13.565Z,70.70
2023-05-15T04:23:42.629Z,70.70
2023-05-15T04:26:11.695Z,70.50
2023-05-15T04:28:49.312Z,71.00
2023-05-15T04:31:25.464Z,71.10
2023-05-15T04:33:54.578Z,71.10
2023-05-15T04:36:25.433Z,71.40
2023-05-15T04:38:54.494Z,71.50
2023-05-15T04:41:23.370Z,71.70
2023-05-15T04:43:52.418Z,71.70
2023-05-15T04:46:21.536Z,71.80
2023-05-15T04:48:50.798Z,71.80
2023-05-15T04:51:19.928Z,71.80
2023-05-15T04:53:50.297Z,71.70
2023-05-15T04:56:19.411Z,71.90
2023-05-15T04:58:48.525Z,72.00
2023-05-15T05:01:17.648Z,71.80
2023-05-15T05:03:46.813Z,71.80
2023-05-15T05:06:16.096Z,71.90
2023-05-15T05:08:45.190Z,71.90
2023-05-15T05:11:15.688Z,72.00
2023-05-15T05:13:44.639Z,71.90
2023-05-15T05:16:13.977Z,71.80
2023-05-15T05:18:43.166Z,71.80
2023-05-15T05:21:12.446Z,71.60
2023-05-15T05:23:41.452Z,71.80
2023-05-15T05:26:10.486Z,71.70
2023-05-15T05:28:40.915Z,71.70
2023-05-15T05:31:10.145Z,71.50
2023-05-15T05:33:39.345Z,71.70
2023-05-15T05:36:09.047Z,71.60
2023-05-15T05:38:38.868Z,71.80
2023-05-15T05:41:07.834Z,71.50
2023-05-15T05:43:36.953Z,71.60
2023-05-15T05:46:07.433Z,71.40
2023-05-15T05:48:36.558Z,71.60
2023-05-15T05:51:05.951Z,71.50
2023-05-15T05:53:34.881Z,71.40
2023-05-15T05:56:04.142Z,71.30
2023-05-15T05:58:33.143Z,71.00
2023-05-15T06:01:02.581Z,70.90
2023-05-15T06:03:33.866Z,71.00
2023-05-15T06:06:03.247Z,70.80
2023-05-15T06:08:32.507Z,70.70
2023-05-15T06:11:01.630Z,70.70
2023-05-15T06:13:30.989Z,70.60
2023-05-15T06:16:00.129Z,70.30
2023-05-15T06:18:29.287Z,70.60
2023-05-15T06:21:00.359Z,70.60
2023-05-15T06:23:29.358Z,70.40
2023-05-15T06:25:58.822Z,69.70
2023-05-15T06:28:28.175Z,69.70
2023-05-15T06:30:57.279Z,69.80
2023-05-15T06:33:26.591Z,69.50
2023-05-15T06:35:56.160Z,69.20
2023-05-15T06:38:26.674Z,69.10
2023-05-15T06:40:56.062Z,69.20
2023-05-15T06:43:25.279Z,69.00
2023-05-15T06:45:54.789Z,69.20
2023-05-15T06:48:24.141Z,69.10
2023-05-15T06:54:08.901Z,69.40
2023-05-15T06:56:37.899Z,68.90
2023-05-15T06:59:08.176Z,68.10
2023-05-15T07:01:38.324Z,67.80
2023-05-15T07:04:07.941Z,67.50
2023-05-15T07:06:37.654Z,67.30
2023-05-15T07:09:08.145Z,67.40
2023-05-15T07:11:38.743Z,67.10
2023-05-15T07:14:08.244Z,66.80
2023-05-15T07:16:37.446Z,67.20
2023-05-15T07:19:06.522Z,66.20
2023-05-15T07:21:35.686Z,65.70
2023-05-15T07:24:05.195Z,65.40
2023-05-15T07:26:43.517Z,65.60
2023-05-15T07:29:16.002Z,65.70
2023-05-15T07:31:45.391Z,65.90
2023-05-15T07:34:14.559Z,64.90
2023-05-15T07:36:43.595Z,65.20
2023-05-15T07:39:13.178Z,65.50
2023-05-15T07:41:44.155Z,65.60
2023-05-15T07:44:13.073Z,64.70
2023-05-15T07:46:41.925Z,63.10
2023-05-15T07:49:11.310Z,62.50
2023-05-15T07:51:40.816Z,63.50
2023-05-15T07:54:10.297Z,63.40
2023-05-15T07:56:39.830Z,62.80
2023-05-15T07:59:10.612Z,62.60
2023-05-15T08:01:39.500Z,61.70
2023-05-15T08:04:10.508Z,61.40
2023-05-15T08:06:39.831Z,61.40
2023-05-15T08:09:09.222Z,60.60
2023-05-15T08:11:38.184Z,60.70
2023-05-15T08:14:07.378Z,60.10
2023-05-15T08:16:37.909Z,61.00
2023-05-15T08:19:08.154Z,61.10
2023-05-15T08:21:37.307Z,61.50
2023-05-15T08:24:07.080Z,60.80
2023-05-15T08:26:36.267Z,60.90
2023-05-15T08:29:05.518Z,60.20
2023-05-15T08:31:34.440Z,59.70
2023-05-15T08:34:04.900Z,58.80
2023-05-15T08:36:35.189Z,58.80
2023-05-15T08:39:04.751Z,59.40
2023-05-15T08:41:40.936Z,58.70
2023-05-15T08:44:11.037Z,58.30
2023-05-15T08:46:40.941Z,58.60
2023-05-15T08:49:21.229Z,57.50
2023-05-15T08:51:50.305Z,56.30
2023-05-15T08:54:19.546Z,57.00
2023-05-15T08:56:49.103Z,54.30
2023-05-15T08:59:18.648Z,53.60
2023-05-15T09:01:52.026Z,54.70
2023-05-15T09:04:22.709Z,54.20
2023-05-15T09:06:52.333Z,54.20
2023-05-15T09:09:21.973Z,54.60
2023-05-15T09:11:52.542Z,54.80
2023-05-15T09:14:21.567Z,54.80
2023-05-15T09:16:53.315Z,53.90
2023-05-15T09:19:23.857Z,55.00
2023-05-15T09:21:53.082Z,53.50
2023-05-15T09:24:24.589Z,53.40
2023-05-15T09:27:04.276Z,54.00
2023-05-15T09:29:34.746Z,53.50
2023-05-15T09:32:04.985Z,53.30
2023-05-15T09:34:37.002Z,53.20
2023-05-15T09:37:07.477Z,52.20
2023-05-15T09:39:42.445Z,52.50
2023-05-15T09:42:13.152Z,51.20
2023-05-15T09:44:44.070Z,50.70
2023-05-15T09:47:14.927Z,50.90
2023-05-15T09:49:47.326Z,51.00
2023-05-15T09:52:17.569Z,51.00
2023-05-15T09:54:50.304Z,52.20
2023-05-15T09:57:24.064Z,51.90
2023-05-15T09:59:53.205Z,51.50
2023-05-15T10:02:28.204Z,50.90
2023-05-15T10:04:59.550Z,49.20
2023-05-15T10:07:30.241Z,49.40
2023-05-15T10:09:59.850Z,50.20
2023-05-15T10:12:31.298Z,49.60
2023-05-15T10:15:01.362Z,50.10
2023-05-15T10:17:33.215Z,50.60
2023-05-15T10:20:07.001Z,50.10
2023-05-15T10:22:41.252Z,50.40
2023-05-15T10:25:17.398Z,50.90
2023-05-15T10:27:48.752Z,49.40
2023-05-15T10:30:18.147Z,49.90
2023-05-15T10:32:47.767Z,48.90
2023-05-15T10:35:18.592Z,48.60
2023-05-15T10:37:49.659Z,48.60
2023-05-15T10:40:19.003Z,49.60
2023-05-15T10:42:48.733Z,50.50
2023-05-15T10:45:18.459Z,52.20
2023-05-15T10:47:48.442Z,53.10
2023-05-15T10:50:19.902Z,53.60
2023-05-15T10:52:52.409Z,54.50
2023-05-15T10:55:27.881Z,55.40
2023-05-15T10:57:57.215Z,56.10
2023-05-15T11:00:28.942Z,56.30
2023-05-15T11:02:59.291Z,56.60
2023-05-15T11:05:31.195Z,57.10
2023-05-15T11:08:33.559Z,56.70
2023-05-15T11:11:02.911Z,57.80
2023-05-15T11:14:06.190Z,58.40
2023-05-15T11:17:04.991Z,59.20
2023-05-15T11:19:36.916Z,59.10
2023-05-15T11:22:20.997Z,58.90
2023-05-15T11:24:55.241Z,58.90
2023-05-15T11:27:27.716Z,58.60
2023-05-15T11:30:18.192Z,58.00
2023-05-15T11:32:52.184Z,58.40
2023-05-15T11:35:27.942Z,57.90
2023-05-15T11:38:00.547Z,58.60
2023-05-15T11:40:31.507Z,58.70
2023-05-15T11:43:02.770Z,58.90
2023-05-15T11:45:33.491Z,59.10
2023-05-15T11:48:04.076Z,59.20
2023-05-15T11:50:34.333Z,59.20
2023-05-15T11:53:06.377Z,59.20
2023-05-15T11:55:37.080Z,59.40
2023-05-15T11:58:11.491Z,59.50
2023-05-15T12:00:40.829Z,59.20
2023-05-15T12:03:17.326Z,59.30
2023-05-15T12:05:57.444Z,59.00
2023-05-15T12:08:33.325Z,59.10
2023-05-15T12:11:04.302Z,58.30
2023-05-15T12:13:34.271Z,57.00
2023-05-15T12:16:05.046Z,57.00
2023-05-15T12:18:34.945Z,57.20
2023-05-15T12:21:05.866Z,56.40
2023-05-15T12:23:36.286Z,56.20
2023-05-15T12:26:06.112Z,56.10
2023-05-15T12:28:37.188Z,56.30
2023-05-15T12:31:06.759Z,56.00
2023-05-15T12:33:36.350Z,55.90
2023-05-15T12:36:06.116Z,55.50
2023-05-15T12:38:37.572Z,56.50
2023-05-15T12:41:11.721Z,56.50
2023-05-15T12:43:41.199Z,56.20
2023-05-15T12:46:11.089Z,56.00
2023-05-15T12:48:42.202Z,55.20
2023-05-15T12:51:11.295Z,54.80
2023-05-15T12:53:43.438Z,55.40
2023-05-15T12:56:17.050Z,54.50
2023-05-15T12:58:46.190Z,54.80
2023-05-15T13:01:17.585Z,54.50
2023-05-15T13:03:48.113Z,54.50
2023-05-15T13:06:17.692Z,53.90
2023-05-15T13:08:49.199Z,53.00
2023-05-15T13:11:19.012Z,52.20
2023-05-15T13:13:49.294Z,53.20
2023-05-15T13:16:27.118Z,51.50
2023-05-15T13:18:57.044Z,51.70
2023-05-15T13:21:26.226Z,50.70
2023-05-15T13:23:57.009Z,51.90
2023-05-15T13:26:26.201Z,51.50
2023-05-15T13:28:56.593Z,51.20
2023-05-15T13:31:27.168Z,50.90
2023-05-15T13:33:56.478Z,51.20
2023-05-15T13:36:25.691Z,49.60
2023-05-15T13:38:56.208Z,48.70
2023-05-15T13:41:26.154Z,48.90
2023-05-15T13:43:55.643Z,48.50
2023-05-15T13:46:24.684Z,48.40
2023-05-15T13:48:53.857Z,48.70
2023-05-15T13:51:22.946Z,48.40
2023-05-15T13:53:51.946Z,47.30
2023-05-15T13:56:22.488Z,48.00
2023-05-15T13:58:51.610Z,47.90
2023-05-15T14:01:20.630Z,48.00
2023-05-15T14:03:49.815Z,48.60
2023-05-15T14:06:18.919Z,48.80
2023-05-15T14:08:48.049Z,49.20
2023-05-15T14:11:17.084Z,48.90
2023-05-15T14:13:47.479Z,48.70
2023-05-15T14:16:16.670Z,48.50
2023-05-15T14:18:45.660Z,47.50
2023-05-15T14:21:14.756Z,47.10
2023-05-15T14:23:44.959Z,47.30
2023-05-15T14:26:14.344Z,47.10
2023-05-15T14:29:00.634Z,46.40
2023-05-15T14:31:58.156Z,47.10
2023-05-15T14:34:27.132Z,46.00
2023-05-15T14:36:56.219Z,46.70
2023-05-15T14:39:25.270Z,46.80
2023-05-15T14:41:54.331Z,47.00
2023-05-15T14:44:24.872Z,46.60
2023-05-15T14:47:07.707Z,46.10
2023-05-15T14:49:37.022Z,46.70
2023-05-15T14:52:09.091Z,45.80
2023-05-15T14:54:38.791Z,45.80
2023-05-15T14:57:08.176Z,45.70
2023-05-15T14:59:38.788Z,46.40
2023-05-15T15:02:20.320Z,46.40
2023-05-15T15:04:58.748Z,46.40
2023-05-15T15:07:30.284Z,46.70
2023-05-15T15:10:07.857Z,46.70
2023-05-15T15:12:58.902Z,46.40
2023-05-15T15:15:30.111Z,46.10
2023-05-15T15:17:59.733Z,45.90
2023-05-15T15:20:29.705Z,45.60
2023-05-15T15:22:58.945Z,45.60
2023-05-15T15:25:29.806Z,45.60
2023-05-15T15:28:00.732Z,46.00
2023-05-15T15:30:31.297Z,46.10
2023-05-15T15:33:01.176Z,46.40
2023-05-15T15:35:30.529Z,46.30
2023-05-15T15:38:27.153Z,46.40
2023-05-15T15:40:56.397Z,46.60
2023-05-15T15:43:25.488Z,46.00
2023-05-15T15:45:56.385Z,46.40
2023-05-15T15:48:25.709Z,46.00
2023-05-15T15:50:54.893Z,45.80
2023-05-15T15:53:25.031Z,45.90
2023-05-15T15:55:54.194Z,46.10
2023-05-15T15:58:23.863Z,45.30
2023-05-15T16:00:53.114Z,45.90
2023-05-15T16:03:23.571Z,45.70
2023-05-15T16:05:52.850Z,46.50
2023-05-15T16:08:22.008Z,46.20
2023-05-15T16:10:51.022Z,46.40
2023-05-15T16:13:19.992Z,46.00
2023-05-15T16:15:51.756Z,46.10
2023-05-15T16:18:23.025Z,46.40
2023-05-15T16:20:53.679Z,46.20
2023-05-15T16:23:22.673Z,45.90
2023-05-15T16:25:51.709Z,45.30
2023-05-15T16:28:21.216Z,45.00
2023-05-15T16:30:51.448Z,45.50
2023-05-15T16:33:22.312Z,45.20
2023-05-15T16:35:51.832Z,44.90
2023-05-15T16:38:22.880Z,45.60
2023-05-15T16:40:52.132Z,45.00
2023-05-15T16:43:21.750Z,45.70
2023-05-15T16:45:51.112Z,45.50
2023-05-15T16:48:20.046Z,45.10
2023-05-15T16:50:48.902Z,45.70
2023-05-15T16:53:18.724Z,45.70
2023-05-15T16:55:49.143Z,46.00
2023-05-15T16:58:37.738Z,46.00
2023-05-15T17:01:10.136Z,46.00
2023-05-15T17:03:39.199Z,45.90
2023-05-15T17:06:26.610Z,45.90
2023-05-15T17:08:57.780Z,46.30
2023-05-15T17:11:28.323Z,46.10
2023-05-15T17:13:57.561Z,45.90
2023-05-15T17:16:26.616Z,45.90
2023-05-15T17:18:55.748Z,46.00
2023-05-15T17:21:24.857Z,45.70
2023-05-15T17:23:54.411Z,45.80
2023-05-15T17:26:23.678Z,46.30
2023-05-15T17:28:54.080Z,46.40
2023-05-15T17:31:23.102Z,46.80
2023-05-15T17:33:52.051Z,46.70
2023-05-15T17:36:21.218Z,46.60
2023-05-15T17:38:50.218Z,46.50
2023-05-15T17:41:19.364Z,46.70
2023-05-15T17:43:49.387Z,46.70
2023-05-15T17:46:20.140Z,46.70
2023-05-15T17:48:49.193Z,46.80
2023-05-15T17:51:18.114Z,47.10
2023-05-15T17:53:47.155Z,47.30
2023-05-15T17:56:16.281Z,47.30
2023-05-15T17:58:45.255Z,47.20
2023-05-15T18:01:14.178Z,47.30
2023-05-15T18:03:44.490Z,47.50
2023-05-15T18:06:50.923Z,47.70
2023-05-15T18:10:01.657Z,48.60
2023-05-15T18:12:31.056Z,48.40
2023-05-15T18:15:00.179Z,48.20
2023-05-15T18:17:30.042Z,48.50
2023-05-15T18:20:00.601Z,48.50
2023-05-15T18:22:29.672Z,48.70
2023-05-15T18:24:58.837Z,48.50
2023-05-15T18:27:29.247Z,48.40
2023-05-15T18:37:09.850Z,48.80
2023-05-15T18:39:39.303Z,48.70
2023-05-15T18:42:08.784Z,48.80
2023-05-15T18:44:37.902Z,48.80
2023-05-15T18:47:12.570Z,48.80
2023-05-15T18:49:41.658Z,49.30
2023-05-15T18:52:12.098Z,49.40
2023-05-15T18:54:41.750Z,50.10
2023-05-15T18:57:10.797Z,49.50
2023-05-15T18:59:39.802Z,49.50
2023-05-15T19:02:10.258Z,49.60
2023-05-15T19:05:20.622Z,49.90
2023-05-15T19:07:51.010Z,50.20
2023-05-15T19:10:20.018Z,50.20
2023-05-15T19:12:48.978Z,50.40
2023-05-15T19:15:19.056Z,50.50
2023-05-15T19:17:48.055Z,50.60
2023-05-15T19:20:17.383Z,50.60
2023-05-15T19:22:46.460Z,50.60
2023-05-15T19:25:22.761Z,50.70
2023-05-15T19:27:52.019Z,51.00
2023-05-15T19:30:21.412Z,51.20
2023-05-15T19:32:50.518Z,51.40
2023-05-15T19:35:19.976Z,51.20
2023-05-15T19:37:49.224Z,51.30
2023-05-15T19:40:19.852Z,51.50
2023-05-15T19:42:48.943Z,51.50
2023-05-15T19:45:18.053Z,51.60
2023-05-15T19:47:47.090Z,51.80
2023-05-15T19:50:16.270Z,51.80
2023-05-15T19:52:45.623Z,51.90
2023-05-15T19:55:15.104Z,52.40
2023-05-15T19:57:45.988Z,52.20
2023-05-15T20:00:15.851Z,52.30
2023-05-15T20:02:45.159Z,52.60
2023-05-15T20:05:14.283Z,52.30
2023-05-15T20:07:43.768Z,52.60
2023-05-15T20:10:14.060Z,52.80
2023-05-15T20:12:43.366Z,53.10
2023-05-15T20:15:15.788Z,53.30
2023-05-15T20:17:45.677Z,53.40
2023-05-15T20:20:15.156Z,53.40
2023-05-15T20:22:46.004Z,53.30
2023-05-15T20:25:16.746Z,53.20
2023-05-15T20:27:45.787Z,53.20
2023-05-15T20:30:16.814Z,53.10
2023-05-15T20:32:46.312Z,53.50
2023-05-15T20:35:15.917Z,53.30
2023-05-15T20:37:47.132Z,53.40
2023-05-15T20:40:16.639Z,53.40
2023-05-15T20:42:46.078Z,53.40
2023-05-15T20:45:17.258Z,53.70
2023-05-15T20:47:46.608Z,54.30
2023-05-15T20:50:16.084Z,53.90
2023-05-15T20:52:52.247Z,54.30
2023-05-15T20:55:24.247Z,54.40
2023-05-15T20:57:53.538Z,54.30
2023-05-15T21:00:24.183Z,54.50
2023-05-15T21:02:54.241Z,54.30
2023-05-15T21:05:23.665Z,54.50
2023-05-15T21:07:54.070Z,54.80
2023-05-15T21:10:23.194Z,55.00
2023-05-15T21:12:52.163Z,54.90
2023-05-15T21:15:22.707Z,55.10
2023-05-15T21:17:51.711Z,55.20
2023-05-15T21:20:21.084Z,55.30
2023-05-15T21:22:50.195Z,55.50
2023-05-15T21:25:19.929Z,55.70
2023-05-15T21:27:50.002Z,55.80
2023-05-15T21:30:19.207Z,56.00
2023-05-15T21:32:49.699Z,55.90
2023-05-15T21:35:18.884Z,56.10
2023-05-15T21:37:48.245Z,56.10
2023-05-15T21:40:17.522Z,56.10
2023-05-15T21:42:46.496Z,56.30
2023-05-15T21:45:15.916Z,56.60
2023-05-15T21:47:45.741Z,56.70
2023-05-15T21:50:35.361Z,56.90
2023-05-15T21:53:04.458Z,57.00
2023-05-15T21:55:33.581Z,57.00
2023-05-15T21:58:02.936Z,57.00
2023-05-15T22:00:32.016Z,57.20
2023-05-15T22:03:01.215Z,57.50
2023-05-15T22:05:31.870Z,57.50
2023-05-15T22:08:00.955Z,57.60
2023-05-15T22:10:29.996Z,57.70
2023-05-15T22:13:02.602Z,57.80
2023-05-15T22:15:31.541Z,57.80
2023-05-15T22:18:01.700Z,58.00
2023-05-15T22:21:06.316Z,58.10
2023-05-15T22:23:41.608Z,58.30
2023-05-15T22:26:39.753Z,58.50
2023-05-15T22:29:20.323Z,58.70
2023-05-15T22:31:49.565Z,58.60
2023-05-15T22:34:18.880Z,58.50
2023-05-15T22:36:49.518Z,58.60
2023-05-15T22:39:18.578Z,58.50
2023-05-15T22:41:47.935Z,58.60
2023-05-15T22:44:17.433Z,58.80
2023-05-15T22:46:46.525Z,58.90
2023-05-15T22:49:19.177Z,59.00
2023-05-15T22:51:49.663Z,59.10
2023-05-15T22:54:21.675Z,59.30
2023-05-15T22:56:52.851Z,59.40
2023-05-15T22:59:22.324Z,59.40
2023-05-15T23:01:51.542Z,59.50
2023-05-15T23:04:20.648Z,59.60
2023-05-15T23:06:51.143Z,59.60
2023-05-15T23:09:20.322Z,59.60
2023-05-15T23:11:49.430Z,59.60
2023-05-15T23:14:18.689Z,59.90
2023-05-15T23:16:49.114Z,60.20
2023-05-15T23:19:18.320Z,60.20
2023-05-15T23:21:48.016Z,60.30
2023-05-15T23:24:18.561Z,60.30
2023-05-15T23:26:48.138Z,60.50
2023-05-15T23:29:17.149Z,60.50
2023-05-15T23:35:13.001Z,61.00
2023-05-15T23:37:42.018Z,61.00
2023-05-15T23:40:14.463Z,61.00
2023-05-15T23:42:43.438Z,61.20
2023-05-15T23:45:13.822Z,61.10
2023-05-15T23:47:43.074Z,61.20
2023-05-15T23:50:12.275Z,62.10
2023-05-15T23:52:41.467Z,61.50
2023-05-15T23:55:13.018Z,61.40
2023-05-15T23:57:42.093Z,61.50
